Time;durP1;ratioP1;P1;durP2;ratioP2;P2;SDS_P1;SDS_P2;PMS_P1;PMS_P2;Temp;Humidity;BMP_temperature;BMP_pressure;BME280_temperature;BME280_humidity;BME280_pressure;Samples;Min_cycle;Max_cycle;Signal;HPM_P1;HPM_P2
2023/09/13 00:01:02;;;;;;;11.20;10.10;;;;;;;;;;4973413;28;20436;-52
2023/09/13 00:03:28;;;;;;;9.57;8.77;;;;;;;;;;4973444;28;20834;-52
2023/09/13 00:05:54;;;;;;;10.73;9.93;;;;;;;;;;4973266;28;20442;-53
2023/09/13 00:08:20;;;;;;;11.17;10.00;;;;;;;;;;4974053;28;20222;-53
2023/09/13 00:10:47;;;;;;;9.47;7.93;;;;;;;;;;4974498;28;20591;-53
2023/09/13 00:13:13;;;;;;;9.33;8.40;;;;;;;;;;4974307;28;20303;-53
2023/09/13 00:15:43;;;;;;;8.87;8.17;;;;;;;;;;4970859;28;20206;-53
2023/09/13 00:18:09;;;;;;;8.57;7.87;;;;;;;;;;4973960;28;20250;-53
2023/09/13 00:20:38;;;;;;;11.40;10.45;;;;;;;;;;4973053;28;20412;-53
2023/09/13 00:23:05;;;;;;;12.07;10.17;;;;;;;;;;4974572;28;20660;-53
2023/09/13 00:25:31;;;;;;;9.90;9.00;;;;;;;;;;4974023;28;20655;-55
2023/09/13 00:27:58;;;;;;;8.73;8.03;;;;;;;;;;4974067;28;20267;-53
2023/09/13 00:30:24;;;;;;;10.35;9.45;;;;;;;;;;4971500;28;20794;-53
2023/09/13 00:32:50;;;;;;;9.02;8.32;;;;;;;;;;4973079;28;20489;-53
2023/09/13 00:35:16;;;;;;;9.70;8.90;;;;;;;;;;4972800;28;20407;-53
2023/09/13 00:37:42;;;;;;;9.00;8.30;;;;;;;;;;4972769;28;20412;-53
2023/09/13 00:40:09;;;;;;;10.17;9.03;;;;;;;;;;4973879;28;20298;-53
2023/09/13 00:42:35;;;;;;;10.00;9.20;;;;;;;;;;4972316;28;20519;-53
2023/09/13 00:45:03;;;;;;;10.20;9.27;;;;;;;;;;4972625;28;20425;-53
2023/09/13 00:47:29;;;;;;;8.83;8.10;;;;;;;;;;4972391;28;20482;-53
2023/09/13 00:49:55;;;;;;;8.93;8.13;;;;;;;;;;4972536;28;20400;-53
2023/09/13 00:52:22;;;;;;;9.63;8.82;;;;;;;;;;4972389;28;20424;-53
2023/09/13 00:54:48;;;;;;;8.93;8.13;;;;;;;;;;4973556;28;20205;-53
2023/09/13 00:57:14;;;;;;;9.73;8.93;;;;;;;;;;4972397;28;20694;-53
2023/09/13 00:59:40;;;;;;;9.52;8.73;;;;;;;;;;4972413;28;20419;-52
2023/09/13 01:02:08;;;;;;;10.55;9.48;;;;;;;;;;4972603;28;20403;-53
2023/09/13 01:04:36;;;;;;;10.98;10.02;;;;;;;;;;4972025;28;20424;-52
2023/09/13 01:07:02;;;;;;;9.37;8.57;;;;;;;;;;4972268;28;20463;-52
2023/09/13 01:09:29;;;;;;;8.68;7.97;;;;;;;;;;4972095;28;20905;-52
2023/09/13 01:11:55;;;;;;;9.17;8.23;;;;;;;;;;4973346;28;20200;-52
2023/09/13 01:14:21;;;;;;;8.98;8.18;;;;;;;;;;4972268;28;20752;-52
2023/09/13 01:16:49;;;;;;;8.02;7.43;;;;;;;;;;4971800;28;20439;-52
2023/09/13 01:19:26;;;;;;;9.57;8.68;;;;;;;;;;4971860;28;20420;-52
2023/09/13 01:21:59;;;;;;;8.18;7.57;;;;;;;;;;4972157;28;20511;-52
2023/09/13 01:24:39;;;;;;;7.80;7.20;;;;;;;;;;4971823;28;20408;-53
2023/09/13 01:27:17;;;;;;;7.55;6.95;;;;;;;;;;4971600;28;20443;-53
2023/09/13 01:29:45;;;;;;;7.75;7.10;;;;;;;;;;4971897;28;20819;-52
2023/09/13 01:32:11;;;;;;;8.07;7.28;;;;;;;;;;4971500;28;20420;-52
2023/09/13 01:34:37;;;;;;;7.03;6.45;;;;;;;;;;4971975;28;20933;-52
2023/09/13 01:37:04;;;;;;;9.53;6.60;;;;;;;;;;4973172;28;20241;-52
2023/09/13 01:39:30;;;;;;;7.17;6.57;;;;;;;;;;4972414;28;20253;-53
2023/09/13 01:41:59;;;;;;;6.70;6.00;;;;;;;;;;4972856;28;20216;-52
2023/09/13 01:44:26;;;;;;;6.53;6.03;;;;;;;;;;4972760;28;20245;-52
2023/09/13 01:46:55;;;;;;;7.17;6.47;;;;;;;;;;4972945;28;20293;-52
2023/09/13 01:49:22;;;;;;;7.13;5.80;;;;;;;;;;4973052;28;20254;-53
2023/09/13 01:51:48;;;;;;;6.60;6.00;;;;;;;;;;4972564;28;20217;-52
2023/09/13 01:54:14;;;;;;;7.50;6.90;;;;;;;;;;4971472;28;20890;-52
2023/09/13 01:56:40;;;;;;;7.68;7.05;;;;;;;;;;4971473;28;20993;-53
2023/09/13 01:59:06;;;;;;;7.22;6.57;;;;;;;;;;4971493;28;20929;-51
2023/09/13 02:01:32;;;;;;;6.78;6.18;;;;;;;;;;4971225;28;20455;-50
2023/09/13 02:04:00;;;;;;;6.63;6.03;;;;;;;;;;4971262;28;20419;-50
2023/09/13 02:09:29;;;;;;;6.45;5.95;;;;;;;;;;4971657;28;20406;-51
2023/09/13 02:11:55;;;;;;;6.25;5.75;;;;;;;;;;4971352;28;20415;-50
2023/09/13 02:14:21;;;;;;;6.20;5.70;;;;;;;;;;4971667;28;20407;-50
2023/09/13 02:16:47;;;;;;;5.95;5.45;;;;;;;;;;4971176;28;20424;-49
2023/09/13 02:19:15;;;;;;;5.80;5.30;;;;;;;;;;4971200;28;20427;-51
2023/09/13 02:21:41;;;;;;;5.50;5.10;;;;;;;;;;4971084;28;20420;-52
2023/09/13 02:24:07;;;;;;;5.85;5.35;;;;;;;;;;4971257;28;20483;-52
2023/09/13 02:26:33;;;;;;;5.55;5.05;;;;;;;;;;4971016;28;20436;-52
2023/09/13 02:28:59;;;;;;;5.60;5.10;;;;;;;;;;4970922;28;20948;-52
2023/09/13 02:31:26;;;;;;;5.75;5.25;;;;;;;;;;4971074;28;20447;-55
2023/09/13 02:33:53;;;;;;;5.73;5.23;;;;;;;;;;4972346;28;20203;-52
2023/09/13 02:36:22;;;;;;;6.10;5.60;;;;;;;;;;4971155;28;20770;-52
2023/09/13 02:38:48;;;;;;;5.80;5.30;;;;;;;;;;4970930;28;20718;-52
2023/09/13 02:41:14;;;;;;;6.13;5.63;;;;;;;;;;4971016;28;20403;-52
2023/09/13 02:43:40;;;;;;;5.85;5.40;;;;;;;;;;4970883;28;20418;-52
2023/09/13 02:46:06;;;;;;;5.93;5.43;;;;;;;;;;4971227;28;20415;-52
2023/09/13 02:48:32;;;;;;;6.32;5.72;;;;;;;;;;4970520;28;20957;-53
2023/09/13 02:50:58;;;;;;;6.07;5.57;;;;;;;;;;4971024;28;20400;-52
2023/09/13 02:53:26;;;;;;;6.10;5.60;;;;;;;;;;4971142;28;20552;-52
2023/09/13 02:55:52;;;;;;;6.78;6.18;;;;;;;;;;4974941;28;20499;-53
2023/09/13 02:58:18;;;;;;;7.80;7.10;;;;;;;;;;4974847;28;20507;-53
2023/09/13 03:00:44;;;;;;;6.93;6.25;;;;;;;;;;4974306;28;20751;-53
2023/09/13 03:03:10;;;;;;;6.78;6.28;;;;;;;;;;4974961;28;20404;-52
2023/09/13 03:05:36;;;;;;;6.78;6.18;;;;;;;;;;4974686;28;20422;-54
2023/09/13 03:08:02;;;;;;;8.15;7.45;;;;;;;;;;4974640;28;20488;-53
2023/09/13 03:10:30;;;;;;;6.43;5.83;;;;;;;;;;4975503;28;20213;-53
2023/09/13 03:12:56;;;;;;;6.63;6.03;;;;;;;;;;4975485;28;20257;-53
2023/09/13 03:15:22;;;;;;;6.03;5.43;;;;;;;;;;4975585;28;20195;-53
2023/09/13 03:17:48;;;;;;;6.70;6.20;;;;;;;;;;4974213;28;20432;-53
2023/09/13 03:20:14;;;;;;;6.57;6.07;;;;;;;;;;4974290;28;20438;-53
2023/09/13 03:22:40;;;;;;;7.20;6.55;;;;;;;;;;4973770;28;20442;-53
2023/09/13 03:25:06;;;;;;;6.85;6.35;;;;;;;;;;4974398;28;20444;-53
2023/09/13 03:27:33;;;;;;;7.88;7.28;;;;;;;;;;4973559;28;20782;-53
2023/09/13 03:30:00;;;;;;;7.70;7.10;;;;;;;;;;4974090;28;20835;-53
2023/09/13 03:32:26;;;;;;;7.50;6.90;;;;;;;;;;4973936;28;20412;-53
2023/09/13 03:34:52;;;;;;;8.10;7.40;;;;;;;;;;4974082;28;20766;-53
2023/09/13 03:37:18;;;;;;;7.95;7.32;;;;;;;;;;4974119;28;20443;-53
2023/09/13 03:39:44;;;;;;;8.43;7.80;;;;;;;;;;4973624;28;20432;-53
2023/09/13 03:42:10;;;;;;;7.77;7.17;;;;;;;;;;4973948;28;20408;-53
2023/09/13 03:44:37;;;;;;;8.20;7.40;;;;;;;;;;4973923;28;20830;-53
2023/09/13 03:47:04;;;;;;;12.00;10.90;;;;;;;;;;4973717;28;20866;-54
2023/09/13 03:49:30;;;;;;;10.87;10.07;;;;;;;;;;4974669;28;20439;-53
2023/09/13 03:51:56;;;;;;;9.73;8.87;;;;;;;;;;4974776;28;20217;-53
2023/09/13 03:54:22;;;;;;;11.07;10.10;;;;;;;;;;4973780;28;20920;-53
2023/09/13 03:56:48;;;;;;;13.60;12.40;;;;;;;;;;4973752;28;20747;-53
2023/09/13 03:59:14;;;;;;;12.20;11.30;;;;;;;;;;4973214;28;20557;-53
2023/09/13 04:01:42;;;;;;;11.32;10.43;;;;;;;;;;4973371;28;20415;-53
2023/09/13 04:04:08;;;;;;;15.50;14.18;;;;;;;;;;4973543;28;20407;-53
2023/09/13 04:06:34;;;;;;;17.50;15.70;;;;;;;;;;4972378;28;20747;-53
2023/09/13 04:09:00;;;;;;;15.05;13.75;;;;;;;;;;4973459;28;20404;-53
2023/09/13 04:11:28;;;;;;;13.75;12.65;;;;;;;;;;4973059;28;20491;-53
2023/09/13 04:13:54;;;;;;;13.70;12.60;;;;;;;;;;4973244;28;20404;-53
2023/09/13 04:16:20;;;;;;;16.02;14.73;;;;;;;;;;4973302;28;20412;-53
2023/09/13 04:18:48;;;;;;;18.42;16.75;;;;;;;;;;4973029;28;20774;-53
2023/09/13 04:21:14;;;;;;;12.88;11.88;;;;;;;;;;4973083;28;20424;-53
2023/09/13 04:23:40;;;;;;;13.00;12.00;;;;;;;;;;4972983;28;20813;-52
2023/09/13 04:26:06;;;;;;;12.73;11.73;;;;;;;;;;4973149;28;20902;-53
2023/09/13 04:28:33;;;;;;;12.45;11.45;;;;;;;;;;4972987;28;20420;-52
2023/09/13 04:30:59;;;;;;;12.20;11.18;;;;;;;;;;4972982;28;20478;-53
2023/09/13 04:33:40;;;;;;;11.93;10.93;;;;;;;;;;4972572;28;20407;-52
2023/09/13 04:36:07;;;;;;;11.57;10.57;;;;;;;;;;4974067;28;20199;-53
2023/09/13 04:38:33;;;;;;;12.80;11.80;;;;;;;;;;4972757;28;20428;-53
2023/09/13 04:40:59;;;;;;;13.30;12.20;;;;;;;;;;4972811;28;20551;-53
2023/09/13 04:43:25;;;;;;;12.50;11.50;;;;;;;;;;4972666;28;20450;-53
2023/09/13 04:45:52;;;;;;;12.33;11.17;;;;;;;;;;4973807;28;20193;-52
2023/09/13 04:48:18;;;;;;;12.88;11.88;;;;;;;;;;4972510;28;20941;-53
2023/09/13 04:50:44;;;;;;;12.43;11.43;;;;;;;;;;4972592;28;20723;-53
2023/09/13 04:53:11;;;;;;;12.98;11.98;;;;;;;;;;4972514;28;20906;-52
2023/09/13 04:55:37;;;;;;;12.10;11.10;;;;;;;;;;4972566;28;20459;-53
2023/09/13 04:58:03;;;;;;;13.77;12.57;;;;;;;;;;4972255;28;20408;-52
2023/09/13 05:00:29;;;;;;;12.93;11.90;;;;;;;;;;4972424;28;20456;-53
2023/09/13 05:02:55;;;;;;;12.50;11.40;;;;;;;;;;4972222;28;20413;-53
2023/09/13 05:05:22;;;;;;;13.25;12.15;;;;;;;;;;4972530;28;20973;-53
2023/09/13 05:07:48;;;;;;;14.98;13.77;;;;;;;;;;4972041;28;20519;-53
2023/09/13 05:10:15;;;;;;;15.50;14.23;;;;;;;;;;4972166;28;20834;-53
2023/09/13 05:12:41;;;;;;;16.88;15.48;;;;;;;;;;4971039;28;20494;-53
2023/09/13 05:15:08;;;;;;;15.30;14.00;;;;;;;;;;4972010;28;20400;-53
2023/09/13 05:17:34;;;;;;;12.98;11.95;;;;;;;;;;4970767;28;20478;-52
2023/09/13 05:20:00;;;;;;;19.70;17.90;;;;;;;;;;4971464;28;20439;-53
2023/09/13 05:22:26;;;;;;;18.88;17.23;;;;;;;;;;4971442;28;20399;-53
2023/09/13 05:24:52;;;;;;;16.27;14.77;;;;;;;;;;4971549;28;20407;-53
2023/09/13 05:27:19;;;;;;;15.52;14.23;;;;;;;;;;4971407;28;20631;-52
2023/09/13 05:29:45;;;;;;;17.75;16.20;;;;;;;;;;4971120;28;20994;-53
2023/09/13 05:32:11;;;;;;;16.48;15.00;;;;;;;;;;4971035;28;20518;-53
2023/09/13 05:34:37;;;;;;;17.75;16.25;;;;;;;;;;4971210;28;20498;-53
2023/09/13 05:37:03;;;;;;;17.00;15.50;;;;;;;;;;4971257;28;20416;-53
2023/09/13 05:39:29;;;;;;;19.52;17.73;;;;;;;;;;4971064;28;20993;-53
2023/09/13 05:41:55;;;;;;;15.10;13.80;;;;;;;;;;4972105;28;20297;-53
2023/09/13 05:44:24;;;;;;;16.50;14.90;;;;;;;;;;4972810;28;20209;-53
2023/09/13 05:46:52;;;;;;;15.03;13.63;;;;;;;;;;4972131;28;20199;-53
2023/09/13 05:49:18;;;;;;;20.33;18.52;;;;;;;;;;4971449;28;20400;-53
2023/09/13 05:51:45;;;;;;;20.58;18.40;;;;;;;;;;4970961;28;21001;-53
2023/09/13 05:54:11;;;;;;;16.20;14.60;;;;;;;;;;4972002;28;20586;-53
2023/09/13 05:56:37;;;;;;;15.68;14.27;;;;;;;;;;4971048;28;20878;-53
2023/09/13 05:59:03;;;;;;;15.90;14.50;;;;;;;;;;4971036;28;20459;-53
2023/09/13 06:01:31;;;;;;;14.65;13.35;;;;;;;;;;4970963;28;20423;-53
2023/09/13 06:03:57;;;;;;;15.95;14.55;;;;;;;;;;4971132;28;20728;-53
2023/09/13 06:06:23;;;;;;;14.10;12.70;;;;;;;;;;4972147;28;20282;-55
2023/09/13 06:08:49;;;;;;;13.38;12.18;;;;;;;;;;4971139;28;20490;-54
2023/09/13 06:11:17;;;;;;;14.40;13.20;;;;;;;;;;4970868;28;20897;-55
2023/09/13 06:13:43;;;;;;;13.20;12.13;;;;;;;;;;4970650;28;20499;-55
2023/09/13 06:16:09;;;;;;;15.30;14.00;;;;;;;;;;4970552;28;20462;-54
2023/09/13 06:18:37;;;;;;;14.43;13.18;;;;;;;;;;4970807;28;20452;-54
2023/09/13 06:21:03;;;;;;;14.07;12.88;;;;;;;;;;4971219;28;20415;-54
2023/09/13 06:23:33;;;;;;;15.30;13.90;;;;;;;;;;4970452;28;20563;-54
2023/09/13 06:25:59;;;;;;;15.27;13.77;;;;;;;;;;4971611;28;20731;-50
2023/09/13 06:28:25;;;;;;;;;;;;;;;;;;4972585;28;20133;-52
2023/09/13 06:30:51;;;;;;;;;;;;;;;;;;4976257;28;19945;-52
2023/09/13 06:33:17;;;;;;;15.65;14.27;;;;;;;;;;4974737;28;20403;-53
2023/09/13 06:35:45;;;;;;;15.03;12.83;;;;;;;;;;4975549;28;20258;-53
2023/09/13 06:38:13;;;;;;;17.85;16.25;;;;;;;;;;4974427;28;20448;-54
2023/09/13 06:40:42;;;;;;;15.47;14.23;;;;;;;;;;4974279;28;20412;-53
2023/09/13 06:43:09;;;;;;;13.87;12.67;;;;;;;;;;4975577;28;20672;-53
2023/09/13 06:45:35;;;;;;;17.00;15.23;;;;;;;;;;4975746;28;20222;-53
2023/09/13 06:48:01;;;;;;;14.63;13.43;;;;;;;;;;4975404;28;20672;-53
2023/09/13 06:50:28;;;;;;;16.03;14.53;;;;;;;;;;4975616;28;20211;-53
2023/09/13 06:52:55;;;;;;;16.73;15.20;;;;;;;;;;4975509;28;20241;-53
2023/09/13 06:55:21;;;;;;;16.23;14.80;;;;;;;;;;4975745;28;20206;-53
2023/09/13 06:57:48;;;;;;;16.30;14.77;;;;;;;;;;4975250;28;20274;-53
2023/09/13 07:00:16;;;;;;;14.17;12.80;;;;;;;;;;4975054;28;20229;-53
2023/09/13 07:02:42;;;;;;;16.83;15.38;;;;;;;;;;4973970;28;20648;-53
2023/09/13 07:05:08;;;;;;;16.40;14.93;;;;;;;;;;4974442;28;20400;-54
2023/09/13 07:07:34;;;;;;;13.65;12.45;;;;;;;;;;4974122;28;20451;-54
2023/09/13 07:10:03;;;;;;;13.27;12.13;;;;;;;;;;4973866;28;20454;-53
2023/09/13 07:12:29;;;;;;;12.40;11.30;;;;;;;;;;4973551;28;20573;-53
2023/09/13 07:14:55;;;;;;;10.80;9.98;;;;;;;;;;4973688;28;20403;-55
2023/09/13 07:17:21;;;;;;;11.30;10.40;;;;;;;;;;4973901;28;20916;-52
2023/09/13 07:19:47;;;;;;;9.85;9.05;;;;;;;;;;4973650;28;20451;-53
2023/09/13 07:22:13;;;;;;;9.32;8.63;;;;;;;;;;4973703;28;20428;-53
2023/09/13 07:24:39;;;;;;;8.13;7.53;;;;;;;;;;4973572;28;20920;-54
2023/09/13 07:27:07;;;;;;;8.02;7.40;;;;;;;;;;4973657;28;20490;-54
2023/09/13 07:29:33;;;;;;;7.70;7.10;;;;;;;;;;4973595;28;20408;-54
2023/09/13 07:31:59;;;;;;;5.30;4.88;;;;;;;;;;4973778;28;20672;-54
2023/09/13 07:34:25;;;;;;;3.85;3.55;;;;;;;;;;4973373;28;20404;-54
2023/09/13 07:36:51;;;;;;;3.08;2.80;;;;;;;;;;4973430;28;20415;-54
2023/09/13 07:39:17;;;;;;;3.70;2.30;;;;;;;;;;4973303;28;20868;-54
2023/09/13 07:41:43;;;;;;;2.00;1.90;;;;;;;;;;4974495;28;20427;-54
2023/09/13 07:44:12;;;;;;;2.10;1.90;;;;;;;;;;4973581;28;20428;-53
2023/09/13 07:46:38;;;;;;;1.80;1.70;;;;;;;;;;4973344;28;20423;-54
2023/09/13 07:49:04;;;;;;;1.90;1.80;;;;;;;;;;4973491;28;20395;-55
2023/09/13 07:51:30;;;;;;;2.00;1.45;;;;;;;;;;4973174;28;20439;-56
2023/09/13 07:54:02;;;;;;;1.55;1.45;;;;;;;;;;4973262;28;20901;-56
2023/09/13 07:56:28;;;;;;;1.80;1.70;;;;;;;;;;4973202;28;20909;-56
2023/09/13 07:58:54;;;;;;;2.13;1.93;;;;;;;;;;4972876;28;20523;-56
2023/09/13 08:01:21;;;;;;;2.00;1.90;;;;;;;;;;4973235;28;20404;-60
2023/09/13 08:03:47;;;;;;;3.47;2.30;;;;;;;;;;4972864;28;20419;-60
2023/09/13 08:06:13;;;;;;;2.50;2.30;;;;;;;;;;4973280;28;20408;-54
2023/09/13 08:08:39;;;;;;;2.40;2.20;;;;;;;;;;4972933;28;20499;-54
2023/09/13 08:11:05;;;;;;;3.70;3.40;;;;;;;;;;4973272;28;20415;-55
2023/09/13 08:13:31;;;;;;;4.35;4.05;;;;;;;;;;4972927;28;20482;-55
2023/09/13 08:15:58;;;;;;;5.03;4.53;;;;;;;;;;4972780;28;20412;-55
2023/09/13 08:18:25;;;;;;;5.03;4.63;;;;;;;;;;4973071;28;20411;-56
2023/09/13 08:20:51;;;;;;;6.40;5.90;;;;;;;;;;4973245;28;20499;-55
2023/09/13 08:23:17;;;;;;;7.10;6.60;;;;;;;;;;4973230;28;20400;-54
2023/09/13 08:25:45;;;;;;;6.15;5.65;;;;;;;;;;4972758;28;20408;-55
2023/09/13 08:28:11;;;;;;;5.55;5.10;;;;;;;;;;4973208;28;20416;-54
2023/09/13 08:30:37;;;;;;;5.75;5.32;;;;;;;;;;4973026;28;20507;-54
2023/09/13 08:33:03;;;;;;;5.20;4.80;;;;;;;;;;4972870;28;20416;-54
2023/09/13 08:35:30;;;;;;;4.32;4.00;;;;;;;;;;4972844;28;20412;-55
2023/09/13 08:37:57;;;;;;;4.38;4.07;;;;;;;;;;4970489;28;20688;-55
2023/09/13 08:40:24;;;;;;;3.70;3.40;;;;;;;;;;4971806;28;20542;-55
2023/09/13 08:42:51;;;;;;;3.33;3.13;;;;;;;;;;4971484;28;20993;-55
2023/09/13 08:45:17;;;;;;;4.03;3.72;;;;;;;;;;4970581;28;20400;-55
2023/09/13 08:47:44;;;;;;;4.30;3.90;;;;;;;;;;4971860;28;20439;-55
2023/09/13 08:50:11;;;;;;;4.03;3.72;;;;;;;;;;4972032;28;20392;-55
2023/09/13 08:52:39;;;;;;;3.72;3.42;;;;;;;;;;4971438;28;20451;-55
2023/09/13 08:55:06;;;;;;;3.53;3.20;;;;;;;;;;4971741;28;20424;-55
2023/09/13 08:57:34;;;;;;;3.33;3.03;;;;;;;;;;4971913;28;20408;-55
2023/09/13 09:00:00;;;;;;;3.85;3.45;;;;;;;;;;4971429;28;20607;-55
2023/09/13 09:02:27;;;;;;;3.90;3.60;;;;;;;;;;4971868;28;20455;-55
2023/09/13 09:04:54;;;;;;;5.50;4.30;;;;;;;;;;4970146;28;20408;-56
2023/09/13 09:07:21;;;;;;;4.30;3.90;;;;;;;;;;4952699;28;20410;-54
2023/09/13 09:09:49;;;;;;;5.10;4.10;;;;;;;;;;4955207;28;20496;-56
2023/09/13 09:12:16;;;;;;;5.82;4.40;;;;;;;;;;4963115;28;20827;-55
2023/09/13 09:14:43;;;;;;;8.60;3.63;;;;;;;;;;4962844;28;20203;-55
2023/09/13 09:17:10;;;;;;;4.53;3.30;;;;;;;;;;4961053;28;20515;-56
2023/09/13 09:19:36;;;;;;;5.88;3.42;;;;;;;;;;4962973;28;20428;-54
2023/09/13 09:22:03;;;;;;;4.60;3.22;;;;;;;;;;4961737;28;20820;-55
2023/09/13 09:24:29;;;;;;;6.67;3.00;;;;;;;;;;4960969;28;20416;-55
2023/09/13 09:26:57;;;;;;;7.72;3.50;;;;;;;;;;4962131;28;20408;-55
2023/09/13 09:29:33;;;;;;;6.03;3.45;;;;;;;;;;4961212;28;20457;-56
2023/09/13 09:32:00;;;;;;;5.50;2.97;;;;;;;;;;4960873;28;20421;-55
2023/09/13 09:34:29;;;;;;;5.63;3.30;;;;;;;;;;4961204;28;20420;-54
2023/09/13 09:37:02;;;;;;;4.78;3.00;;;;;;;;;;4962101;28;20959;-55
2023/09/13 09:39:28;;;;;;;5.38;3.20;;;;;;;;;;4961970;28;20429;-56
2023/09/13 09:41:58;;;;;;;7.97;3.42;;;;;;;;;;4959893;28;20430;-55
2023/09/13 09:44:27;;;;;;;4.95;3.13;;;;;;;;;;4962908;28;20416;-55
2023/09/13 09:46:53;;;;;;;5.23;2.90;;;;;;;;;;4971066;28;20496;-55
2023/09/13 09:49:19;;;;;;;5.50;3.08;;;;;;;;;;4971690;28;20420;-55
2023/09/13 09:51:45;;;;;;;5.67;2.90;;;;;;;;;;4971294;28;20891;-55
2023/09/13 09:54:12;;;;;;;5.47;2.50;;;;;;;;;;4972545;28;20448;-55
2023/09/13 09:56:38;;;;;;;4.37;2.30;;;;;;;;;;4972436;28;20209;-55
2023/09/13 09:59:05;;;;;;;6.03;2.67;;;;;;;;;;4972263;28;20269;-55
2023/09/13 10:01:31;;;;;;;3.27;2.27;;;;;;;;;;4972396;28;20231;-54
2023/09/13 10:04:07;;;;;;;5.10;2.50;;;;;;;;;;4972498;28;20204;-55
2023/09/13 10:06:33;;;;;;;5.78;2.70;;;;;;;;;;4971239;28;20465;-55
2023/09/13 10:08:59;;;;;;;6.07;2.70;;;;;;;;;;4971265;28;20400;-55
2023/09/13 10:11:26;;;;;;;7.43;2.95;;;;;;;;;;4971268;28;20503;-56
2023/09/13 10:13:53;;;;;;;3.42;2.20;;;;;;;;;;4971216;28;20949;-55
2023/09/13 10:16:21;;;;;;;6.43;2.80;;;;;;;;;;4971146;28;20466;-55
2023/09/13 10:18:48;;;;;;;6.82;2.88;;;;;;;;;;4970803;28;20424;-55
2023/09/13 10:21:15;;;;;;;7.22;2.63;;;;;;;;;;4970912;28;20400;-55
2023/09/13 10:23:42;;;;;;;6.38;2.70;;;;;;;;;;4970712;28;20431;-55
2023/09/13 10:26:09;;;;;;;5.28;2.42;;;;;;;;;;4970844;28;20434;-55
2023/09/13 10:28:37;;;;;;;5.13;2.45;;;;;;;;;;4970884;28;20440;-55
2023/09/13 10:31:05;;;;;;;4.97;2.58;;;;;;;;;;4970727;28;20427;-55
2023/09/13 10:33:34;;;;;;;4.30;2.10;;;;;;;;;;4970683;28;20400;-55
2023/09/13 10:36:03;;;;;;;4.18;2.40;;;;;;;;;;4970625;28;20487;-55
2023/09/13 10:38:32;;;;;;;5.40;2.17;;;;;;;;;;4970647;28;20436;-55
2023/09/13 10:41:02;;;;;;;5.83;2.13;;;;;;;;;;4971864;28;20633;-55
2023/09/13 10:43:29;;;;;;;5.73;2.43;;;;;;;;;;4971907;28;20561;-55
2023/09/13 10:45:55;;;;;;;5.00;2.58;;;;;;;;;;4970112;28;20403;-55
2023/09/13 10:48:22;;;;;;;5.13;2.17;;;;;;;;;;4970686;28;20416;-56
2023/09/13 10:50:50;;;;;;;6.10;2.63;;;;;;;;;;4970725;28;20412;-55
2023/09/13 10:53:16;;;;;;;5.53;2.40;;;;;;;;;;4970915;28;20444;-56
2023/09/13 10:55:44;;;;;;;5.72;2.53;;;;;;;;;;4970618;28;20408;-55
2023/09/13 10:58:12;;;;;;;3.42;2.40;;;;;;;;;;4970454;28;20514;-55
2023/09/13 11:00:39;;;;;;;9.43;2.53;;;;;;;;;;4970490;28;20936;-55
2023/09/13 11:03:05;;;;;;;5.65;2.63;;;;;;;;;;4970677;28;20827;-55
2023/09/13 11:05:33;;;;;;;5.35;2.40;;;;;;;;;;4970594;28;20439;-56
2023/09/13 11:08:00;;;;;;;5.50;2.70;;;;;;;;;;4970410;28;20455;-54
2023/09/13 11:10:31;;;;;;;6.65;2.30;;;;;;;;;;4970299;28;20822;-56
2023/09/13 11:12:57;;;;;;;4.85;2.55;;;;;;;;;;4970284;28;20771;-54
2023/09/13 11:15:23;;;;;;;7.30;2.88;;;;;;;;;;4972228;28;20767;-54
2023/09/13 11:17:50;;;;;;;5.25;2.63;;;;;;;;;;4974036;28;20396;-54
2023/09/13 11:20:38;;;;;;;5.95;2.80;;;;;;;;;;4973674;28;20906;-54
2023/09/13 11:23:09;;;;;;;5.87;2.80;;;;;;;;;;4973957;28;20431;-54
2023/09/13 11:25:38;;;;;;;4.93;2.70;;;;;;;;;;4973731;28;20446;-54
2023/09/13 11:28:06;;;;;;;4.45;2.40;;;;;;;;;;4973805;28;20506;-55
2023/09/13 11:30:48;;;;;;;5.28;2.30;;;;;;;;;;4973736;28;20415;-54
2023/09/13 11:33:15;;;;;;;4.13;2.47;;;;;;;;;;4973897;28;20443;-55
2023/09/13 11:35:41;;;;;;;4.05;2.30;;;;;;;;;;4973315;28;20463;-55
2023/09/13 11:38:08;;;;;;;4.32;2.30;;;;;;;;;;4974009;28;20420;-55
2023/09/13 11:40:35;;;;;;;4.53;2.60;;;;;;;;;;4973815;28;20427;-56
2023/09/13 11:43:01;;;;;;;4.75;2.47;;;;;;;;;;4973806;28;20412;-53
2023/09/13 11:45:30;;;;;;;4.40;2.55;;;;;;;;;;4973630;28;20475;-53
2023/09/13 11:47:56;;;;;;;3.17;2.20;;;;;;;;;;4973467;28;20408;-56
2023/09/13 11:50:22;;;;;;;4.05;2.20;;;;;;;;;;4973621;28;20886;-56
2023/09/13 11:53:10;;;;;;;5.07;2.33;;;;;;;;;;4973829;28;20404;-55
2023/09/13 11:55:39;;;;;;;3.72;2.17;;;;;;;;;;4973521;28;20415;-55
2023/09/13 11:58:06;;;;;;;3.63;2.28;;;;;;;;;;4973406;28;20772;-55
2023/09/13 12:00:40;;;;;;;3.93;2.20;;;;;;;;;;4972951;28;20463;-53
2023/09/13 12:03:06;;;;;;;5.50;2.60;;;;;;;;;;4962173;28;20421;-53
2023/09/13 12:05:33;;;;;;;4.20;2.30;;;;;;;;;;4953838;28;20496;-54
2023/09/13 12:08:00;;;;;;;4.50;2.40;;;;;;;;;;4953465;28;20493;-55
2023/09/13 12:10:30;;;;;;;5.53;2.53;;;;;;;;;;4953426;28;20885;-55
2023/09/13 12:12:57;;;;;;;4.18;2.30;;;;;;;;;;4953608;28;20885;-55
2023/09/13 12:15:25;;;;;;;3.50;2.50;;;;;;;;;;4954477;28;20449;-55
2023/09/13 12:17:51;;;;;;;3.75;2.42;;;;;;;;;;4963688;28;20871;-56
2023/09/13 12:20:17;;;;;;;4.00;2.50;;;;;;;;;;4965008;28;20787;-54
2023/09/13 12:22:43;;;;;;;3.97;2.00;;;;;;;;;;4955882;28;20950;-54
2023/09/13 12:25:09;;;;;;;5.05;2.38;;;;;;;;;;4972197;28;20898;-54
2023/09/13 12:27:35;;;;;;;4.47;2.20;;;;;;;;;;4971417;28;20978;-54
2023/09/13 12:30:06;;;;;;;6.43;2.60;;;;;;;;;;4972350;28;20413;-54
2023/09/13 12:32:32;;;;;;;4.75;2.53;;;;;;;;;;4970235;28;21026;-55
2023/09/13 12:34:58;;;;;;;5.47;2.53;;;;;;;;;;4960903;28;20505;-53
2023/09/13 12:37:24;;;;;;;4.53;2.20;;;;;;;;;;4963927;28;20426;-53
2023/09/13 12:39:50;;;;;;;4.07;2.17;;;;;;;;;;4969208;28;20532;-54
2023/09/13 12:42:18;;;;;;;4.72;2.70;;;;;;;;;;4967388;28;20491;-52
2023/09/13 12:44:47;;;;;;;3.20;2.10;;;;;;;;;;4970522;28;20683;-50
2023/09/13 12:47:17;;;;;;;5.20;2.53;;;;;;;;;;4973479;28;20547;-52
2023/09/13 12:49:43;;;;;;;3.25;2.30;;;;;;;;;;4972209;28;20443;-53
2023/09/13 12:52:09;;;;;;;4.95;2.40;;;;;;;;;;4971895;28;20769;-53
2023/09/13 12:54:39;;;;;;;4.10;2.33;;;;;;;;;;4972136;28;20427;-55
2023/09/13 12:57:05;;;;;;;4.93;2.60;;;;;;;;;;4972359;28;20891;-57
2023/09/13 12:59:41;;;;;;;3.90;2.30;;;;;;;;;;4971834;28;20924;-50
2023/09/13 13:02:12;;;;;;;4.53;2.38;;;;;;;;;;4971924;28;20983;-55
2023/09/13 13:04:41;;;;;;;3.63;2.35;;;;;;;;;;4972287;28;20529;-53
2023/09/13 13:07:07;;;;;;;4.15;2.40;;;;;;;;;;4971904;28;20416;-53
2023/09/13 13:09:33;;;;;;;4.32;2.55;;;;;;;;;;4972041;28;20396;-52
2023/09/13 13:12:00;;;;;;;4.40;2.45;;;;;;;;;;4971833;28;20766;-49
2023/09/13 13:14:26;;;;;;;5.30;2.40;;;;;;;;;;4970883;28;20771;-52
2023/09/13 13:16:53;;;;;;;4.30;2.20;;;;;;;;;;4971671;28;20403;-52
2023/09/13 13:19:26;;;;;;;6.93;2.00;;;;;;;;;;4972599;28;20228;-53
2023/09/13 13:21:54;;;;;;;2.87;2.10;;;;;;;;;;4972859;28;20201;-53
2023/09/13 13:24:20;;;;;;;2.57;2.10;;;;;;;;;;4972858;28;20199;-53
2023/09/13 13:26:46;;;;;;;3.00;2.00;;;;;;;;;;4971579;28;20478;-53
2023/09/13 13:29:12;;;;;;;4.28;2.28;;;;;;;;;;4971240;28;20439;-53
2023/09/13 13:31:38;;;;;;;3.50;2.33;;;;;;;;;;4971356;28;20408;-53
2023/09/13 13:34:04;;;;;;;3.87;2.03;;;;;;;;;;4973010;28;20284;-52
2023/09/13 13:36:30;;;;;;;2.85;2.10;;;;;;;;;;4971477;28;20424;-53
2023/09/13 13:38:58;;;;;;;3.80;2.10;;;;;;;;;;4970937;28;20423;-53
2023/09/13 13:41:25;;;;;;;2.90;2.17;;;;;;;;;;4972424;28;20200;-53
2023/09/13 13:43:52;;;;;;;3.27;2.07;;;;;;;;;;4972545;28;20243;-53
2023/09/13 13:46:18;;;;;;;4.22;2.20;;;;;;;;;;4971347;28;20883;-53
2023/09/13 13:48:45;;;;;;;4.68;2.40;;;;;;;;;;4971298;28;20428;-53
2023/09/13 13:51:11;;;;;;;3.53;2.20;;;;;;;;;;4972426;28;20212;-51
2023/09/13 13:53:37;;;;;;;2.90;2.03;;;;;;;;;;4972089;28;20568;-51
2023/09/13 13:56:05;;;;;;;2.20;2.00;;;;;;;;;;4972503;28;20285;-51
2023/09/13 13:58:32;;;;;;;3.78;2.60;;;;;;;;;;4971060;28;20470;-50
2023/09/13 14:00:59;;;;;;;4.30;2.35;;;;;;;;;;4970956;28;20412;-50
2023/09/13 14:03:25;;;;;;;3.20;2.30;;;;;;;;;;4970930;28;20408;-51
2023/09/13 14:05:52;;;;;;;2.80;2.30;;;;;;;;;;4970878;28;20419;-50
2023/09/13 14:08:18;;;;;;;2.80;2.28;;;;;;;;;;4971223;28;20432;-51
2023/09/13 14:10:45;;;;;;;3.77;2.30;;;;;;;;;;4971049;28;20404;-51
2023/09/13 14:13:13;;;;;;;3.60;2.30;;;;;;;;;;4970761;28;20423;-50
2023/09/13 14:15:39;;;;;;;3.60;2.30;;;;;;;;;;4970544;28;20470;-50
2023/09/13 14:18:05;;;;;;;3.28;2.15;;;;;;;;;;4970896;28;20867;-50
2023/09/13 14:20:32;;;;;;;4.15;2.53;;;;;;;;;;4970626;28;20428;-51
2023/09/13 14:22:58;;;;;;;3.55;2.15;;;;;;;;;;4970771;28;20400;-50
2023/09/13 14:25:24;;;;;;;3.00;2.50;;;;;;;;;;4970731;28;20451;-51
2023/09/13 14:27:50;;;;;;;2.70;2.20;;;;;;;;;;4970383;28;20486;-50
2023/09/13 14:30:18;;;;;;;3.47;2.40;;;;;;;;;;4970429;28;20479;-50
2023/09/13 14:32:46;;;;;;;3.47;2.30;;;;;;;;;;4970645;28;20899;-54
2023/09/13 14:35:12;;;;;;;3.07;2.20;;;;;;;;;;4970626;28;20486;-53
2023/09/13 14:37:38;;;;;;;2.55;2.20;;;;;;;;;;4970536;28;20420;-52